createdAt,value
2018-11-23T00:02:00.928Z,97818.27
2018-11-23T00:04:28.596Z,97825.38
2018-11-23T00:06:56.129Z,97825.48
2018-11-23T00:09:23.742Z,97825.19
2018-11-23T00:11:51.332Z,97835.24
2018-11-23T00:14:18.936Z,97842.44
2018-11-23T00:16:46.549Z,97837.14
2018-11-23T00:19:14.196Z,97840.53
2018-11-23T00:21:41.764Z,97837.36
2018-11-23T00:24:09.420Z,97826.99
2018-11-23T00:26:37.182Z,97829.70
2018-11-23T00:29:04.967Z,97831.38
2018-11-23T00:31:32.566Z,97832.84
2018-11-23T00:34:00.219Z,97833.39
2018-11-23T00:36:27.879Z,97837.27
2018-11-23T00:38:55.467Z,97833.06
2018-11-23T00:41:23.118Z,97831.94
2018-11-23T00:43:50.745Z,97830.55
2018-11-23T00:46:18.361Z,97830.47
2018-11-23T00:48:46.020Z,97819.70
2018-11-23T00:51:13.699Z,97816.45
2018-11-23T00:53:41.297Z,97822.42
2018-11-23T00:56:08.887Z,97826.89
2018-11-23T00:58:36.517Z,97825.47
2018-11-23T01:01:04.169Z,97828.77
2018-11-23T01:03:31.897Z,97831.70
2018-11-23T01:05:59.484Z,97826.42
2018-11-23T01:08:27.073Z,97831.70
2018-11-23T01:10:54.679Z,97823.92
2018-11-23T01:13:22.299Z,97837.58
2018-11-23T01:15:49.951Z,97835.09
2018-11-23T01:18:17.546Z,97835.45
2018-11-23T01:20:45.245Z,97833.28
2018-11-23T01:23:12.904Z,97830.69
2018-11-23T01:25:40.532Z,97830.13
2018-11-23T01:28:08.102Z,97830.47
2018-11-23T01:30:35.752Z,97828.53
2018-11-23T01:33:03.399Z,97827.97
2018-11-23T01:35:31.007Z,97825.95
2018-11-23T01:37:58.646Z,97830.50
2018-11-23T01:40:27.504Z,97830.81
2018-11-23T01:42:55.374Z,97823.91
2018-11-23T01:45:23.020Z,97826.72
2018-11-23T01:47:50.612Z,97815.07
2018-11-23T01:50:22.412Z,97818.61
2018-11-23T01:52:50.789Z,97825.58
2018-11-23T01:55:19.153Z,97819.17
2018-11-23T01:57:47.080Z,97820.17
2018-11-23T02:00:16.133Z,97818.61
2018-11-23T02:02:44.075Z,97821.21
2018-11-23T02:05:11.909Z,97815.88
2018-11-23T02:07:39.881Z,97824.03
2018-11-23T02:10:07.958Z,97829.99
2018-11-23T02:12:35.613Z,97828.87
2018-11-23T02:15:03.265Z,97817.58
2018-11-23T02:17:30.887Z,97812.55
2018-11-23T02:19:58.488Z,97808.08
2018-11-23T02:22:27.197Z,97804.22
2018-11-23T02:24:54.787Z,97807.63
2018-11-23T02:27:22.837Z,97813.34
2018-11-23T02:29:50.536Z,97814.29
2018-11-23T02:32:18.222Z,97814.54
2018-11-23T02:34:45.844Z,97817.70
2018-11-23T02:37:13.457Z,97823.08
2018-11-23T02:39:41.454Z,97826.08
2018-11-23T02:42:09.113Z,97824.45
2018-11-23T02:44:36.661Z,97828.80
2018-11-23T02:47:04.529Z,97824.78
2018-11-23T02:49:32.084Z,97824.59
2018-11-23T02:51:59.676Z,97828.53
2018-11-23T02:54:27.325Z,97828.53
2018-11-23T02:56:54.940Z,97831.27
2018-11-23T02:59:24.044Z,97745.13
2018-11-23T03:01:50.320Z,97829.88
2018-11-23T03:04:17.994Z,97831.50
2018-11-23T03:06:45.665Z,97835.31
2018-11-23T03:09:13.333Z,97827.28
2018-11-23T03:11:41.707Z,97830.02
2018-11-23T03:14:09.969Z,97827.76
2018-11-23T03:16:37.963Z,97830.80
2018-11-23T03:19:05.767Z,97827.58
2018-11-23T03:21:33.406Z,97835.72
2018-11-23T03:24:01.041Z,97827.05
2018-11-23T03:26:28.855Z,97820.39
2018-11-23T03:28:56.519Z,97823.91
2018-11-23T03:31:25.350Z,97827.25
2018-11-23T03:33:53.127Z,97832.59
2018-11-23T03:36:21.082Z,97821.30
2018-11-23T03:38:48.782Z,97819.36
2018-11-23T03:41:16.592Z,97822.20
2018-11-23T03:43:44.494Z,97823.34
2018-11-23T03:46:12.265Z,97824.44
2018-11-23T03:48:39.922Z,97828.61
2018-11-23T03:51:07.898Z,97830.77
2018-11-23T03:53:35.556Z,97832.12
2018-11-23T03:56:03.228Z,97832.17
2018-11-23T03:58:30.876Z,97832.12
2018-11-23T04:00:58.688Z,97824.41
2018-11-23T04:03:26.369Z,97832.31
2018-11-23T04:05:54.026Z,97834.91
2018-11-23T04:08:21.679Z,97837.25
2018-11-23T04:10:49.326Z,97845.42
2018-11-23T04:13:17.025Z,97838.33
2018-11-23T04:15:44.667Z,97842.50
2018-11-23T04:18:12.370Z,97844.20
2018-11-23T04:20:40.051Z,97843.37
2018-11-23T04:23:07.714Z,97846.73
2018-11-23T04:25:35.379Z,97849.44
2018-11-23T04:28:03.065Z,97842.73
2018-11-23T04:30:30.723Z,97844.52
2018-11-23T04:32:58.460Z,97840.69
2018-11-23T04:35:26.089Z,97836.41
2018-11-23T04:37:53.777Z,97842.73
2018-11-23T04:40:21.423Z,97844.89
2018-11-23T04:42:49.069Z,97843.33
2018-11-23T04:45:16.748Z,97837.31
2018-11-23T04:47:44.428Z,97836.67
2018-11-23T04:50:13.400Z,97840.61
2018-11-23T04:52:41.322Z,97841.14
2018-11-23T04:55:09.572Z,97843.41
2018-11-23T04:57:37.234Z,97854.23
2018-11-23T05:00:05.484Z,97857.98
2018-11-23T05:02:33.226Z,97855.03
2018-11-23T05:05:00.948Z,97858.83
2018-11-23T05:07:28.616Z,97851.52
2018-11-23T05:09:56.245Z,97856.05
2018-11-23T05:12:23.928Z,97861.28
2018-11-23T05:14:51.625Z,97867.48
2018-11-23T05:17:19.334Z,97862.88
2018-11-23T05:19:47.046Z,97867.75
2018-11-23T05:22:14.757Z,97864.28
2018-11-23T05:24:42.399Z,97861.02
2018-11-23T05:27:10.033Z,97856.95
2018-11-23T05:29:37.681Z,97858.09
2018-11-23T05:32:05.381Z,97856.58
2018-11-23T05:34:33.070Z,97856.23
2018-11-23T05:37:00.779Z,97860.80
2018-11-23T05:39:28.447Z,97862.19
2018-11-23T05:41:56.158Z,97859.86
2018-11-23T05:44:23.817Z,97858.89
2018-11-23T05:46:51.559Z,97857.92
2018-11-23T05:49:19.221Z,97848.78
2018-11-23T05:51:46.933Z,97847.30
2018-11-23T05:54:14.639Z,97852.91
2018-11-23T05:56:42.334Z,97847.25
2018-11-23T05:59:10.133Z,97856.29
2018-11-23T06:01:37.986Z,97843.14
2018-11-23T06:04:05.703Z,97844.16
2018-11-23T06:06:33.462Z,97854.59
2018-11-23T06:09:01.177Z,97860.20
2018-11-23T06:11:28.857Z,97860.36
2018-11-23T06:13:56.573Z,97851.86
2018-11-23T06:16:24.330Z,97859.94
2018-11-23T06:18:52.147Z,97854.69
2018-11-23T06:21:19.949Z,97849.17
2018-11-23T06:23:47.610Z,97841.16
2018-11-23T06:26:17.435Z,97844.77
2018-11-23T06:28:45.144Z,97837.45
2018-11-23T06:31:13.301Z,97754.81
2018-11-23T06:33:43.539Z,97838.52
2018-11-23T06:36:11.207Z,97844.27
2018-11-23T06:38:38.931Z,97849.44
2018-11-23T06:41:10.489Z,97854.20
2018-11-23T06:43:34.770Z,97852.63
2018-11-23T06:46:03.617Z,97852.50
2018-11-23T06:48:31.278Z,97856.47
2018-11-23T06:50:58.994Z,97850.27
2018-11-23T06:53:26.962Z,97848.45
2018-11-23T06:55:55.124Z,97847.00
2018-11-23T06:58:22.995Z,97854.20
2018-11-23T07:00:50.725Z,97862.33
2018-11-23T07:03:18.577Z,97864.36
2018-11-23T07:05:46.287Z,97869.10
2018-11-23T07:08:13.974Z,97868.98
2018-11-23T07:10:41.741Z,97867.53
2018-11-23T07:13:09.808Z,97861.87
2018-11-23T07:15:37.859Z,97851.95
2018-11-23T07:18:05.650Z,97849.13
2018-11-23T07:20:33.353Z,97844.05
2018-11-23T07:23:00.997Z,97849.92
2018-11-23T07:25:28.677Z,97847.22
2018-11-23T07:27:56.394Z,97850.14
2018-11-23T07:30:25.659Z,97850.14
2018-11-23T07:32:53.295Z,97852.39
2018-11-23T07:35:20.930Z,97842.81
2018-11-23T07:37:48.676Z,97843.25
2018-11-23T07:40:23.163Z,97853.41
2018-11-23T07:42:51.345Z,97859.63
2018-11-23T07:45:19.037Z,97863.34
2018-11-23T07:47:46.807Z,97867.75
2018-11-23T07:50:14.490Z,97868.77
2018-11-23T07:52:42.235Z,97863.23
2018-11-23T07:55:10.969Z,97857.03
2018-11-23T07:57:38.692Z,97860.18
2018-11-23T08:00:11.050Z,97858.95
2018-11-23T08:02:38.762Z,97856.11
2018-11-23T08:05:07.761Z,97851.95
2018-11-23T08:07:35.461Z,97858.95
2018-11-23T08:10:02.335Z,97865.72
2018-11-23T08:12:30.036Z,97863.69
2018-11-23T08:14:57.931Z,97865.72
2018-11-23T08:17:25.608Z,97867.97
2018-11-23T08:19:53.513Z,97865.72
2018-11-23T08:22:21.276Z,97862.21
2018-11-23T08:24:49.068Z,97862.33
2018-11-23T08:27:16.751Z,97865.26
2018-11-23T08:29:44.493Z,97866.95
2018-11-23T08:32:12.271Z,97862.45
2018-11-23T08:34:40.008Z,97863.01
2018-11-23T08:37:07.733Z,97857.47
2018-11-23T08:39:35.570Z,97860.52
2018-11-23T08:42:03.222Z,97854.67
2018-11-23T08:44:30.897Z,97855.09
2018-11-23T08:46:58.627Z,97856.45
2018-11-23T08:49:26.316Z,97856.58
2018-11-23T08:51:54.024Z,97851.03
2018-11-23T08:54:21.710Z,97856.11
2018-11-23T08:56:49.478Z,97850.94
2018-11-23T08:59:17.202Z,97850.59
2018-11-23T09:01:44.865Z,97850.48
2018-11-23T09:04:12.577Z,97859.41
2018-11-23T09:06:40.197Z,97860.64
2018-11-23T09:09:08.689Z,97859.84
2018-11-23T09:11:36.320Z,97857.13
2018-11-23T09:14:04.174Z,97866.52
2018-11-23T09:16:31.797Z,97862.67
2018-11-23T09:18:59.738Z,97861.20
2018-11-23T09:21:27.548Z,97850.36
2018-11-23T09:23:55.398Z,97844.05
2018-11-23T09:26:23.042Z,97847.09
2018-11-23T09:28:50.815Z,97841.89
2018-11-23T09:31:18.582Z,97838.84
2018-11-23T09:33:46.508Z,97832.41
2018-11-23T09:36:14.251Z,97823.94
2018-11-23T09:38:42.050Z,97821.69
2018-11-23T09:41:09.998Z,97815.48
2018-11-23T09:43:37.775Z,97820.22
2018-11-23T09:46:05.775Z,97812.09
2018-11-23T09:48:33.423Z,97809.72
2018-11-23T09:51:01.057Z,97819.66
2018-11-23T09:53:28.775Z,97831.85
2018-11-23T09:55:56.477Z,97831.30
2018-11-23T09:58:24.207Z,97829.70
2018-11-23T10:00:51.878Z,97820.80
2018-11-23T10:03:19.506Z,97823.17
2018-11-23T10:05:47.226Z,97823.17
2018-11-23T10:08:14.902Z,97820.34
2018-11-23T10:10:42.522Z,97824.64
2018-11-23T10:13:10.282Z,97825.75
2018-11-23T10:15:37.940Z,97823.97
2018-11-23T10:18:05.620Z,97840.78
2018-11-23T10:20:34.237Z,97840.44
2018-11-23T10:23:01.920Z,97829.82
2018-11-23T10:25:30.849Z,97827.11
2018-11-23T10:27:58.474Z,97811.45
2018-11-23T10:30:27.448Z,97809.77
2018-11-23T10:32:56.531Z,97812.73
2018-11-23T10:35:24.373Z,97810.88
2018-11-23T10:37:53.389Z,97804.13
2018-11-23T10:40:22.278Z,97791.28
2018-11-23T10:42:49.908Z,97789.61
2018-11-23T10:45:18.834Z,97783.89
2018-11-23T10:47:46.912Z,97782.75
2018-11-23T10:50:16.062Z,97784.02
2018-11-23T10:52:43.907Z,97779.05
2018-11-23T10:55:13.248Z,97762.91
2018-11-23T10:57:40.911Z,97756.27
2018-11-23T11:00:14.598Z,97760.67
2018-11-23T11:02:43.549Z,97760.09
2018-11-23T11:05:16.649Z,97755.34
2018-11-23T11:07:44.334Z,97737.64
2018-11-23T11:10:12.039Z,97731.66
2018-11-23T11:12:39.779Z,97728.18
2018-11-23T11:15:07.613Z,97727.93
2018-11-23T11:17:35.250Z,97728.73
2018-11-23T11:20:03.071Z,97730.30
2018-11-23T11:22:30.814Z,97723.53
2018-11-23T11:24:58.435Z,97715.41
2018-11-23T11:27:26.064Z,97712.61
2018-11-23T11:29:53.681Z,97713.29
2018-11-23T11:32:21.306Z,97724.21
2018-11-23T11:34:48.925Z,97714.06
2018-11-23T11:37:16.571Z,97706.86
2018-11-23T11:39:44.214Z,97709.66
2018-11-23T11:42:11.851Z,97702.34
2018-11-23T11:44:39.463Z,97703.48
2018-11-23T11:47:07.094Z,97708.77
2018-11-23T11:49:34.730Z,97711.27
2018-11-23T11:52:02.451Z,97712.61
2018-11-23T11:54:30.083Z,97706.39
2018-11-23T11:56:57.736Z,97698.28
2018-11-23T11:59:25.446Z,97696.03
2018-11-23T12:01:53.167Z,97688.91
2018-11-23T12:04:20.781Z,97688.00
2018-11-23T12:06:48.446Z,97685.30
2018-11-23T12:09:16.079Z,97675.58
2018-11-23T12:11:43.776Z,97660.35
2018-11-23T12:14:11.417Z,97666.26
2018-11-23T12:16:39.069Z,97673.02
2018-11-23T12:19:08.126Z,97660.14
2018-11-23T12:21:34.393Z,97651.45
2018-11-23T12:24:02.013Z,97654.28
2018-11-23T12:26:29.666Z,97652.02
2018-11-23T12:28:57.285Z,97656.08
2018-11-23T12:31:24.962Z,97646.72
2018-11-23T12:33:52.590Z,97648.85
2018-11-23T12:36:20.535Z,97654.72
2018-11-23T12:38:48.210Z,97646.61
2018-11-23T12:41:15.822Z,97644.80
2018-11-23T12:43:43.542Z,97643.69
2018-11-23T12:46:11.149Z,97630.37
2018-11-23T12:48:38.800Z,97632.06
2018-11-23T12:51:06.885Z,97633.76
2018-11-23T12:53:34.510Z,97625.63
2018-11-23T12:56:02.148Z,97623.60
2018-11-23T12:58:29.800Z,97621.92
2018-11-23T13:00:57.431Z,97617.39
2018-11-23T13:03:25.092Z,97608.26
2018-11-23T13:05:52.775Z,97603.87
2018-11-23T13:08:20.451Z,97602.30
2018-11-23T13:10:48.168Z,97600.27
2018-11-23T13:13:15.804Z,97603.53
2018-11-23T13:15:43.431Z,97599.81
2018-11-23T13:18:11.047Z,97601.50
2018-11-23T13:20:38.681Z,97596.09
2018-11-23T13:23:06.446Z,97594.52
2018-11-23T13:25:34.318Z,97591.70
2018-11-23T13:28:02.050Z,97592.63
2018-11-23T13:30:32.058Z,97592.04
2018-11-23T13:32:59.684Z,97601.17
2018-11-23T13:35:27.303Z,97604.34
2018-11-23T13:37:54.947Z,97613.00
2018-11-23T13:40:23.977Z,97615.95
2018-11-23T13:42:51.915Z,97608.85
2018-11-23T13:45:20.822Z,97606.92
2018-11-23T13:47:48.431Z,97596.89
2018-11-23T13:50:18.349Z,97598.47
2018-11-23T13:52:46.874Z,97587.44
2018-11-23T13:55:14.616Z,97583.59
2018-11-23T13:57:42.319Z,97583.72
2018-11-23T14:00:13.126Z,97578.98
2018-11-23T14:02:41.002Z,97581.01
2018-11-23T14:05:09.788Z,97579.23
2018-11-23T14:07:37.433Z,97584.05
2018-11-23T14:10:06.734Z,97572.47
2018-11-23T14:12:34.354Z,97568.61
2018-11-23T14:15:01.984Z,97556.33
2018-11-23T14:17:29.598Z,97546.52
2018-11-23T14:19:57.206Z,97552.05
2018-11-23T14:22:24.853Z,97542.47
2018-11-23T14:24:52.480Z,97542.04
2018-11-23T14:27:20.098Z,97552.18
2018-11-23T14:29:47.798Z,97541.36
2018-11-23T14:32:15.423Z,97545.63
2018-11-23T14:34:43.047Z,97536.38
2018-11-23T14:37:10.682Z,97534.48
2018-11-23T14:39:38.298Z,97533.60
2018-11-23T14:42:06.154Z,97527.72
2018-11-23T14:44:33.763Z,97529.53
2018-11-23T14:47:01.370Z,97522.19
2018-11-23T14:49:29.010Z,97520.06
2018-11-23T14:51:56.662Z,97525.23
2018-11-23T14:54:24.311Z,97520.29
2018-11-23T14:56:51.967Z,97519.74
2018-11-23T14:59:19.597Z,97518.72
2018-11-23T15:01:51.996Z,97520.75
2018-11-23T15:04:14.922Z,97527.39
2018-11-23T15:06:42.537Z,97524.13
2018-11-23T15:09:10.830Z,97526.72
2018-11-23T15:11:39.011Z,97523.34
2018-11-23T15:14:07.004Z,97522.20
2018-11-23T15:16:34.849Z,97517.92
2018-11-23T15:19:02.468Z,97522.20
2018-11-23T15:21:30.094Z,97521.86
2018-11-23T15:24:00.862Z,97517.03
2018-11-23T15:26:25.390Z,97517.13
2018-11-23T15:28:53.014Z,97513.66
2018-11-23T15:31:20.662Z,97512.73
2018-11-23T15:33:48.291Z,97509.15
2018-11-23T15:36:15.925Z,97501.72
2018-11-23T15:38:43.558Z,97503.28
2018-11-23T15:41:11.177Z,97500.48
2018-11-23T15:43:38.794Z,97496.42
2018-11-23T15:46:06.414Z,97503.52
2018-11-23T15:48:34.047Z,97498.54
2018-11-23T15:51:07.049Z,97501.72
2018-11-23T15:53:35.050Z,97502.03
2018-11-23T15:56:02.679Z,97501.59
2018-11-23T15:58:30.302Z,97501.84
2018-11-23T16:00:57.946Z,97498.09
2018-11-23T16:03:25.566Z,97493.48
2018-11-23T16:05:53.206Z,97490.33
2018-11-23T16:08:20.863Z,97490.32
2018-11-23T16:10:48.642Z,97488.51
2018-11-23T16:13:16.259Z,97493.15
2018-11-23T16:15:43.881Z,97491.02
2018-11-23T16:18:11.943Z,97494.59
2018-11-23T16:20:41.037Z,97489.65
2018-11-23T16:23:12.298Z,97486.84
2018-11-23T16:25:40.245Z,97489.31
2018-11-23T16:28:08.898Z,97484.11
2018-11-23T16:30:38.126Z,97480.64
2018-11-23T16:33:06.828Z,97480.98
2018-11-23T16:35:35.551Z,97480.06
2018-11-23T16:38:07.509Z,97479.17
2018-11-23T16:40:36.679Z,97481.55
2018-11-23T16:43:04.737Z,97479.64
2018-11-23T16:45:33.626Z,97476.92
2018-11-23T16:48:02.401Z,97475.33
2018-11-23T16:50:30.355Z,97471.06
2018-11-23T16:52:58.249Z,97473.98
2018-11-23T16:55:26.228Z,97467.81
2018-11-23T16:57:55.418Z,97473.22
2018-11-23T17:00:40.840Z,97470.73
2018-11-23T17:03:08.853Z,97470.05
2018-11-23T17:05:38.053Z,97468.59
2018-11-23T17:08:06.295Z,97468.50
2018-11-23T17:10:33.914Z,97462.50
2018-11-23T17:13:01.530Z,97462.41
2018-11-23T17:15:29.639Z,97461.53
2018-11-23T17:17:57.347Z,97458.23
2018-11-23T17:20:26.413Z,97452.28
2018-11-23T17:22:55.174Z,97447.43
2018-11-23T17:25:23.680Z,97440.20
2018-11-23T17:27:51.962Z,97440.45
2018-11-23T17:30:21.049Z,97440.80
2018-11-23T17:32:48.666Z,97435.27
2018-11-23T17:35:16.289Z,97426.81
2018-11-23T17:37:43.966Z,97424.23
2018-11-23T17:40:12.573Z,97419.17
2018-11-23T17:42:40.218Z,97409.16
2018-11-23T17:45:15.615Z,97402.28
2018-11-23T17:47:43.266Z,97405.31
2018-11-23T17:50:11.701Z,97401.81
2018-11-23T17:52:39.334Z,97388.77
2018-11-23T17:55:07.623Z,97386.63
2018-11-23T17:57:35.234Z,97382.22
2018-11-23T18:00:02.989Z,97389.57
2018-11-23T18:02:31.015Z,97385.27
2018-11-23T18:04:58.624Z,97377.63
2018-11-23T18:07:26.243Z,97370.99
2018-11-23T18:09:53.853Z,97370.41
2018-11-23T18:12:21.503Z,97362.09
2018-11-23T18:14:49.117Z,97363.44
2018-11-23T18:17:16.739Z,97357.15
2018-11-23T18:19:44.367Z,97357.92
2018-11-23T18:22:12.006Z,97357.16
2018-11-23T18:24:39.627Z,97352.42
2018-11-23T18:27:07.314Z,97355.81
2018-11-23T18:29:34.921Z,97352.18
2018-11-23T18:32:02.567Z,97350.28
2018-11-23T18:34:30.188Z,97356.02
2018-11-23T18:36:57.801Z,97349.26
2018-11-23T18:39:25.460Z,97347.91
2018-11-23T18:41:53.115Z,97341.50
2018-11-23T18:44:20.728Z,97342.17
2018-11-23T18:46:48.349Z,97333.85
2018-11-23T18:49:15.994Z,97324.63
2018-11-23T18:51:43.601Z,97326.42
2018-11-23T18:54:11.218Z,97320.78
2018-11-23T18:56:38.838Z,97317.66
2018-11-23T18:59:06.450Z,97311.25
2018-11-23T19:01:34.091Z,97310.66
2018-11-23T19:04:01.710Z,97309.08
2018-11-23T19:06:29.331Z,97309.98
2018-11-23T19:08:56.954Z,97308.75
2018-11-23T19:11:24.564Z,97303.02
2018-11-23T19:13:52.174Z,97286.22
2018-11-23T19:16:19.836Z,97281.16
2018-11-23T19:18:47.466Z,97266.30
2018-11-23T19:21:15.073Z,97268.22
2018-11-23T19:23:42.691Z,97267.86
2018-11-23T19:26:10.335Z,97255.72
2018-11-23T19:28:38.049Z,97252.37
2018-11-23T19:31:05.729Z,97243.69
2018-11-23T19:33:33.363Z,97241.22
2018-11-23T19:36:00.983Z,97234.05
2018-11-23T19:38:28.599Z,97225.14
2018-11-23T19:40:56.215Z,97224.80
2018-11-23T19:43:23.847Z,97219.61
2018-11-23T19:45:51.465Z,97215.91
2018-11-23T19:48:19.090Z,97209.51
2018-11-23T19:50:46.707Z,97199.27
2018-11-23T19:53:14.330Z,97193.07
2018-11-23T19:55:41.939Z,97192.52
2018-11-23T19:58:09.613Z,97194.29
2018-11-23T20:00:37.261Z,97203.74
2018-11-23T20:03:04.932Z,97213.88
2018-11-23T20:05:32.561Z,97207.81
2018-11-23T20:08:00.169Z,97197.35
2018-11-23T20:10:27.781Z,97194.44
2018-11-23T20:12:55.952Z,97195.09
2018-11-23T20:15:23.623Z,97196.00
2018-11-23T20:17:51.257Z,97202.20
2018-11-23T20:20:18.874Z,97212.00
2018-11-23T20:22:47.029Z,97227.99
2018-11-23T20:25:15.200Z,97216.15
2018-11-23T20:27:42.849Z,97212.54
2018-11-23T20:30:11.867Z,97206.24
2018-11-23T20:32:39.495Z,97202.07
2018-11-23T20:35:07.857Z,97204.55
2018-11-23T20:37:35.502Z,97192.07
2018-11-23T20:40:03.253Z,97182.73
2018-11-23T20:42:30.884Z,97184.50
2018-11-23T20:44:58.501Z,97180.13
2018-11-23T20:47:26.122Z,97185.66
2018-11-23T20:49:53.743Z,97181.72
2018-11-23T20:52:21.366Z,97181.14
2018-11-23T20:54:48.978Z,97186.00
2018-11-23T20:57:16.595Z,97178.09
2018-11-23T20:59:44.207Z,97171.36
2018-11-23T21:02:11.826Z,97166.41
2018-11-23T21:04:39.461Z,97160.14
2018-11-23T21:07:07.069Z,97157.86
2018-11-23T21:09:34.716Z,97156.19
2018-11-23T21:12:02.424Z,97153.83
2018-11-23T21:14:30.041Z,97151.92
2018-11-23T21:16:57.669Z,97136.17
2018-11-23T21:19:25.290Z,97141.58
2018-11-23T21:21:52.915Z,97141.13
2018-11-23T21:24:20.546Z,97140.89
2018-11-23T21:26:48.238Z,97138.55
2018-11-23T21:29:15.914Z,97143.77
2018-11-23T21:31:43.557Z,97133.30
2018-11-23T21:34:11.178Z,97134.19
2018-11-23T21:36:38.818Z,97117.43
2018-11-23T21:39:13.537Z,97113.25
2018-11-23T21:41:35.924Z,97105.17
2018-11-23T21:44:03.578Z,97114.14
2018-11-23T21:46:31.250Z,97117.32
2018-11-23T21:48:58.876Z,97104.72
2018-11-23T21:51:26.498Z,97100.91
2018-11-23T21:53:54.135Z,97100.77
2018-11-23T21:56:21.771Z,97089.52
2018-11-23T21:58:49.402Z,97092.67
2018-11-23T22:01:17.046Z,97084.05
2018-11-23T22:03:44.699Z,97077.70
2018-11-23T22:06:12.326Z,97073.64
2018-11-23T22:08:39.956Z,97078.86
2018-11-23T22:11:07.591Z,97080.39
2018-11-23T22:13:35.252Z,97082.01
2018-11-23T22:16:02.879Z,97087.14
2018-11-23T22:18:30.510Z,97083.67
2018-11-23T22:20:58.164Z,97082.43
2018-11-23T22:23:25.794Z,97077.51
2018-11-23T22:25:53.407Z,97062.53
2018-11-23T22:28:21.033Z,97071.66
2018-11-23T22:30:48.662Z,97064.80
2018-11-23T22:33:16.288Z,97070.20
2018-11-23T22:35:48.161Z,97067.40
2018-11-23T22:38:11.605Z,97061.77
2018-11-23T22:40:39.222Z,97055.36
2018-11-23T22:43:06.887Z,97050.03
2018-11-23T22:45:34.526Z,97058.80
2018-11-23T22:48:02.202Z,97054.35
2018-11-23T22:50:30.053Z,97053.69
2018-11-23T22:52:57.693Z,97056.14
2018-11-23T22:55:25.303Z,97045.91
2018-11-23T22:57:52.947Z,97055.70
2018-11-23T23:00:30.441Z,97057.63
2018-11-23T23:02:58.130Z,97059.32
2018-11-23T23:05:25.750Z,97057.31
2018-11-23T23:07:53.365Z,97058.19
2018-11-23T23:10:21.063Z,97048.98
2018-11-23T23:12:48.695Z,97046.63
2018-11-23T23:15:16.331Z,97043.47
2018-11-23T23:17:44.148Z,97032.99
2018-11-23T23:20:13.455Z,97032.78
2018-11-23T23:22:41.094Z,97019.73
2018-11-23T23:25:09.284Z,97018.73
2018-11-23T23:27:36.932Z,97016.58
2018-11-23T23:30:05.328Z,97035.37
2018-11-23T23:32:32.958Z,97026.70
2018-11-23T23:35:00.633Z,97045.95
2018-11-23T23:37:28.252Z,97031.53
2018-11-23T23:39:55.878Z,97033.05
2018-11-23T23:42:23.539Z,97029.20
2018-11-23T23:44:51.181Z,97011.77
2018-11-23T23:47:18.804Z,97016.50
2018-11-23T23:49:46.473Z,97008.62
2018-11-23T23:52:14.102Z,97000.49
2018-11-23T23:54:41.740Z,96988.14
2018-11-23T23:57:09.358Z,96978.34
2018-11-23T23:59:36.995Z,96963.39
